Time;durP1;ratioP1;P1;durP2;ratioP2;P2;SDS_P1;SDS_P2;PMS_P1;PMS_P2;Temp;Humidity;BMP_temperature;BMP_pressure;BME280_temperature;BME280_humidity;BME280_pressure;Samples;Min_cycle;Max_cycle;Signal;HPM_P1;HPM_P2
2023/08/23 00:00:17;;;;;;;4.83;4.37;;;;;;;;;;4972890;28;21087;-88
2023/08/23 00:02:43;;;;;;;5.30;4.63;;;;;;;;;;4990242;28;20434;-89
2023/08/23 00:05:09;;;;;;;5.57;4.40;;;;;;;;;;4983090;28;20420;-90
2023/08/23 00:07:35;;;;;;;5.90;4.90;;;;;;;;;;4963818;28;20422;-89
2023/08/23 00:10:01;;;;;;;10.93;4.50;;;;;;;;;;4967782;28;20529;-89
2023/08/23 00:12:28;;;;;;;5.90;4.87;;;;;;;;;;4967932;28;20445;-89
2023/08/23 00:14:54;;;;;;;5.70;4.80;;;;;;;;;;4961695;28;20446;-89
2023/08/23 00:17:22;;;;;;;5.70;4.93;;;;;;;;;;4968490;28;20462;-89
2023/08/23 00:19:48;;;;;;;5.27;4.77;;;;;;;;;;4979844;28;20461;-88
2023/08/23 00:22:15;;;;;;;6.90;5.03;;;;;;;;;;4983797;28;20430;-88
2023/08/23 00:24:41;;;;;;;9.73;5.23;;;;;;;;;;4960418;28;21211;-88
2023/08/23 00:27:07;;;;;;;6.00;5.40;;;;;;;;;;4981065;28;20437;-88
2023/08/23 00:29:33;;;;;;;7.67;4.83;;;;;;;;;;4971298;28;20478;-89
2023/08/23 00:32:04;;;;;;;7.53;4.83;;;;;;;;;;4967462;28;20434;-89
2023/08/23 00:34:30;;;;;;;5.13;4.63;;;;;;;;;;4959367;28;20415;-90
2023/08/23 00:36:56;;;;;;;6.17;5.13;;;;;;;;;;4971469;28;20495;-90
2023/08/23 00:39:22;;;;;;;8.47;5.50;;;;;;;;;;4970364;28;20443;-89
2023/08/23 00:41:48;;;;;;;6.80;5.10;;;;;;;;;;4969284;28;20421;-89
2023/08/23 00:44:14;;;;;;;6.27;5.40;;;;;;;;;;4988693;28;20416;-89
2023/08/23 00:46:40;;;;;;;6.30;5.23;;;;;;;;;;4967578;28;20840;-88
2023/08/23 00:49:06;;;;;;;5.63;5.03;;;;;;;;;;4971337;28;20476;-89
2023/08/23 00:51:32;;;;;;;13.73;5.00;;;;;;;;;;4945180;29;20444;-89
2023/08/23 00:54:00;;;;;;;13.67;5.83;;;;;;;;;;4926106;29;20500;-89
2023/08/23 00:56:26;;;;;;;7.03;6.43;;;;;;;;;;4929545;28;20598;-89
2023/08/23 00:58:52;;;;;;;7.43;5.90;;;;;;;;;;4942349;29;20515;-89
2023/08/23 01:01:18;;;;;;;8.30;5.80;;;;;;;;;;4962309;28;20509;-89
2023/08/23 01:03:44;;;;;;;6.60;4.80;;;;;;;;;;4938488;28;20525;-89
2023/08/23 01:06:17;;;;;;;7.27;5.90;;;;;;;;;;4962590;28;20451;-89
2023/08/23 01:08:46;;;;;;;10.43;5.80;;;;;;;;;;4932917;29;20438;-89
2023/08/23 01:11:26;;;;;;;6.90;5.73;;;;;;;;;;4941257;29;20434;-89
2023/08/23 01:13:56;;;;;;;6.57;5.23;;;;;;;;;;4940468;29;20485;-89
2023/08/23 01:16:22;;;;;;;8.60;5.90;;;;;;;;;;4926541;29;20451;-89
2023/08/23 01:18:51;;;;;;;11.00;5.73;;;;;;;;;;4956748;29;20443;-89
2023/08/23 01:21:19;;;;;;;8.17;6.10;;;;;;;;;;4920802;29;20196;-89
2023/08/23 01:23:45;;;;;;;6.67;5.60;;;;;;;;;;4945125;29;20466;-89
2023/08/23 01:26:11;;;;;;;5.83;5.17;;;;;;;;;;4928189;29;20443;-89
2023/08/23 01:28:37;;;;;;;8.33;6.13;;;;;;;;;;4928118;29;21001;-89
2023/08/23 01:31:03;;;;;;;5.70;4.77;;;;;;;;;;4927484;29;20453;-89
2023/08/23 01:33:48;;;;;;;6.83;5.40;;;;;;;;;;4939875;28;20457;-89
2023/08/23 01:36:17;;;;;;;8.67;5.47;;;;;;;;;;4943353;29;20446;-89
2023/08/23 01:38:50;;;;;;;7.50;5.80;;;;;;;;;;4947436;29;20470;-89
2023/08/23 01:41:16;;;;;;;6.77;6.13;;;;;;;;;;4944724;29;20533;-89
2023/08/23 01:43:45;;;;;;;7.57;6.40;;;;;;;;;;4945386;28;20478;-89
2023/08/23 01:46:11;;;;;;;6.50;5.90;;;;;;;;;;4922906;29;20530;-90
2023/08/23 01:48:37;;;;;;;6.20;5.60;;;;;;;;;;4930045;28;20493;-89
2023/08/23 01:51:03;;;;;;;6.40;5.43;;;;;;;;;;4933184;29;20538;-89
2023/08/23 01:53:29;;;;;;;6.80;6.10;;;;;;;;;;4983473;28;20445;-89
2023/08/23 01:55:55;;;;;;;7.50;6.40;;;;;;;;;;4968296;28;20429;-89
2023/08/23 01:58:25;;;;;;;11.43;6.83;;;;;;;;;;4960273;28;20462;-89
2023/08/23 02:00:51;;;;;;;7.70;7.00;;;;;;;;;;4978925;28;20443;-89
2023/08/23 02:03:18;;;;;;;8.17;6.87;;;;;;;;;;4952848;28;20446;-89
2023/08/23 02:05:44;;;;;;;10.67;6.20;;;;;;;;;;4976343;28;20497;-90
2023/08/23 02:08:10;;;;;;;7.10;6.17;;;;;;;;;;4955646;28;20435;-89
2023/08/23 02:10:36;;;;;;;8.03;6.50;;;;;;;;;;4971495;28;20434;-88
2023/08/23 02:13:06;;;;;;;10.90;6.03;;;;;;;;;;4980987;28;20445;-89
2023/08/23 02:15:32;;;;;;;7.00;6.33;;;;;;;;;;4959640;28;20469;-89
2023/08/23 02:17:58;;;;;;;7.50;6.80;;;;;;;;;;4964426;28;20445;-89
2023/08/23 02:20:24;;;;;;;10.17;6.97;;;;;;;;;;4962330;28;20968;-90
2023/08/23 02:22:50;;;;;;;12.60;7.37;;;;;;;;;;4966465;28;20437;-89
2023/08/23 02:25:16;;;;;;;9.47;7.27;;;;;;;;;;4955417;28;20444;-88
2023/08/23 02:27:42;;;;;;;7.10;6.50;;;;;;;;;;4966535;28;20495;-89
2023/08/23 02:30:08;;;;;;;7.60;6.30;;;;;;;;;;4971074;28;20437;-89
2023/08/23 02:32:34;;;;;;;7.20;6.50;;;;;;;;;;4954800;28;20434;-89
2023/08/23 02:35:01;;;;;;;8.47;6.90;;;;;;;;;;4969905;28;20430;-89
2023/08/23 02:37:27;;;;;;;8.87;7.30;;;;;;;;;;4977543;28;20930;-88
2023/08/23 02:39:53;;;;;;;7.97;7.00;;;;;;;;;;4979772;28;20473;-89
2023/08/23 02:42:18;;;;;;;8.70;7.17;;;;;;;;;;4988693;28;20449;-89
2023/08/23 02:44:44;;;;;;;7.13;6.43;;;;;;;;;;4973530;28;21595;-89
2023/08/23 02:47:10;;;;;;;8.03;7.23;;;;;;;;;;4966490;28;20425;-89
2023/08/23 02:49:36;;;;;;;6.70;6.00;;;;;;;;;;4968941;28;20457;-89
2023/08/23 02:52:03;;;;;;;8.13;7.07;;;;;;;;;;4968544;28;20445;-90
2023/08/23 02:54:29;;;;;;;7.70;7.00;;;;;;;;;;4964366;28;20971;-90
2023/08/23 02:56:55;;;;;;;8.20;7.30;;;;;;;;;;4978754;28;20458;-89
2023/08/23 02:59:21;;;;;;;7.80;6.83;;;;;;;;;;4991981;28;20441;-89
2023/08/23 03:01:47;;;;;;;7.10;6.40;;;;;;;;;;4965530;28;20477;-89
2023/08/23 03:04:13;;;;;;;7.03;6.40;;;;;;;;;;4971210;28;20443;-90
2023/08/23 03:06:39;;;;;;;8.10;7.30;;;;;;;;;;4972345;28;20486;-89
2023/08/23 03:09:05;;;;;;;8.07;7.30;;;;;;;;;;4976997;28;20864;-89
2023/08/23 03:11:31;;;;;;;7.90;7.10;;;;;;;;;;4967556;28;20429;-89
2023/08/23 03:13:57;;;;;;;8.60;7.47;;;;;;;;;;4989611;28;20433;-89
2023/08/23 03:16:23;;;;;;;6.80;6.20;;;;;;;;;;4987306;28;20944;-89
2023/08/23 03:18:49;;;;;;;12.00;7.20;;;;;;;;;;4965681;28;20433;-88
2023/08/23 03:21:15;;;;;;;9.80;7.60;;;;;;;;;;4962160;28;20544;-89
2023/08/23 03:23:41;;;;;;;10.70;8.07;;;;;;;;;;4959462;28;20454;-89
2023/08/23 03:26:07;;;;;;;7.47;6.77;;;;;;;;;;4966706;28;20448;-89
2023/08/23 03:28:35;;;;;;;9.70;7.23;;;;;;;;;;4964745;28;20657;-89
2023/08/23 03:31:02;;;;;;;8.20;7.40;;;;;;;;;;4972826;28;20539;-89
2023/08/23 03:33:28;;;;;;;11.70;8.13;;;;;;;;;;4956025;28;20458;-89
2023/08/23 03:35:54;;;;;;;9.13;8.07;;;;;;;;;;4969509;28;20436;-89
2023/08/23 03:38:20;;;;;;;7.57;6.87;;;;;;;;;;4965827;28;20478;-89
2023/08/23 03:40:46;;;;;;;7.90;7.20;;;;;;;;;;4979173;28;20422;-89
2023/08/23 03:43:12;;;;;;;9.27;7.67;;;;;;;;;;4958146;28;20461;-89
2023/08/23 03:45:38;;;;;;;7.70;7.00;;;;;;;;;;5003154;28;20428;-89
2023/08/23 03:48:05;;;;;;;8.97;7.70;;;;;;;;;;4978002;28;20501;-87
2023/08/23 03:50:31;;;;;;;7.70;7.00;;;;;;;;;;4963365;28;20445;-88
2023/08/23 03:52:57;;;;;;;9.13;8.13;;;;;;;;;;4963190;28;20489;-88
2023/08/23 03:55:23;;;;;;;7.70;7.00;;;;;;;;;;4975023;28;20425;-88
2023/08/23 03:57:51;;;;;;;8.17;7.37;;;;;;;;;;4960698;28;20466;-87
2023/08/23 04:00:17;;;;;;;8.53;7.67;;;;;;;;;;4973527;28;20434;-88
2023/08/23 04:02:43;;;;;;;9.33;8.43;;;;;;;;;;4978852;28;20962;-87
2023/08/23 04:05:11;;;;;;;11.43;7.90;;;;;;;;;;4978147;28;20436;-87
2023/08/23 04:07:38;;;;;;;9.47;8.57;;;;;;;;;;4985479;28;20437;-88
2023/08/23 04:10:04;;;;;;;11.83;7.90;;;;;;;;;;4962623;28;20876;-87
2023/08/23 04:12:30;;;;;;;9.33;7.80;;;;;;;;;;4966917;28;20789;-88
2023/08/23 04:14:56;;;;;;;9.07;8.17;;;;;;;;;;4966491;28;21125;-89
2023/08/23 04:17:23;;;;;;;9.37;8.47;;;;;;;;;;4962884;28;20477;-89
2023/08/23 04:19:51;;;;;;;9.07;8.20;;;;;;;;;;4960342;28;20449;-89
2023/08/23 04:22:17;;;;;;;8.40;7.60;;;;;;;;;;4958228;28;20430;-89
2023/08/23 04:24:42;;;;;;;8.43;7.63;;;;;;;;;;4974449;28;20479;-88
2023/08/23 04:27:08;;;;;;;10.03;8.13;;;;;;;;;;4964058;28;20453;-88
2023/08/23 04:29:34;;;;;;;8.53;7.20;;;;;;;;;;4964091;28;20432;-89
2023/08/23 04:32:01;;;;;;;14.13;8.97;;;;;;;;;;4980679;28;20415;-88
2023/08/23 04:34:29;;;;;;;9.37;8.17;;;;;;;;;;4982093;28;20447;-88
2023/08/23 04:36:55;;;;;;;9.57;8.10;;;;;;;;;;4961237;28;20500;-88
2023/08/23 04:39:23;;;;;;;8.83;8.00;;;;;;;;;;4966518;28;20438;-89
2023/08/23 04:41:49;;;;;;;8.40;7.63;;;;;;;;;;4963118;28;20423;-89
2023/08/23 04:44:15;;;;;;;9.43;7.73;;;;;;;;;;4981240;28;20846;-88
2023/08/23 04:46:41;;;;;;;9.43;8.53;;;;;;;;;;4978618;28;20455;-89
2023/08/23 04:49:08;;;;;;;9.33;8.50;;;;;;;;;;4969718;28;20580;-88
2023/08/23 04:51:34;;;;;;;9.50;8.00;;;;;;;;;;4976234;28;20443;-89
2023/08/23 04:54:01;;;;;;;9.97;8.13;;;;;;;;;;4978038;28;20929;-89
2023/08/23 04:56:27;;;;;;;8.77;7.97;;;;;;;;;;4981999;28;20943;-90
2023/08/23 04:58:54;;;;;;;12.33;8.00;;;;;;;;;;4962938;28;20422;-89
2023/08/23 05:01:20;;;;;;;10.40;9.40;;;;;;;;;;4964417;28;20462;-88
2023/08/23 05:03:48;;;;;;;8.63;7.83;;;;;;;;;;4968766;28;20976;-91
2023/08/23 05:06:15;;;;;;;9.03;8.23;;;;;;;;;;4986284;28;20426;-91
2023/08/23 05:08:41;;;;;;;9.73;8.30;;;;;;;;;;4962721;28;20429;-91
2023/08/23 05:11:07;;;;;;;8.77;7.97;;;;;;;;;;4972710;28;20405;-90
2023/08/23 05:13:33;;;;;;;9.03;8.23;;;;;;;;;;4967820;28;20463;-92
2023/08/23 05:15:59;;;;;;;8.90;8.10;;;;;;;;;;4966649;28;20558;-90
2023/08/23 05:18:25;;;;;;;8.70;7.90;;;;;;;;;;4963721;29;20486;-90
2023/08/23 05:20:55;;;;;;;12.60;8.70;;;;;;;;;;4970824;28;20481;-90
2023/08/23 05:23:27;;;;;;;9.87;8.40;;;;;;;;;;4964179;28;20443;-90
2023/08/23 05:25:54;;;;;;;9.23;8.33;;;;;;;;;;4999267;28;20504;-90
2023/08/23 05:28:21;;;;;;;10.93;8.67;;;;;;;;;;4962660;28;20425;-92
2023/08/23 05:30:47;;;;;;;12.60;7.77;;;;;;;;;;4966759;28;20944;-91
2023/08/23 05:33:13;;;;;;;9.63;8.73;;;;;;;;;;4963075;28;20490;-91
2023/08/23 05:35:42;;;;;;;11.63;8.90;;;;;;;;;;4967695;28;20439;-91
2023/08/23 05:38:09;;;;;;;9.50;8.60;;;;;;;;;;4972138;28;20457;-91
2023/08/23 05:40:35;;;;;;;10.20;8.80;;;;;;;;;;4980130;28;20428;-91
2023/08/23 05:43:01;;;;;;;10.50;8.10;;;;;;;;;;4988194;28;20440;-91
2023/08/23 05:45:27;;;;;;;9.07;8.17;;;;;;;;;;4963103;28;20421;-92
2023/08/23 05:47:54;;;;;;;8.77;7.90;;;;;;;;;;4968406;28;20438;-91
2023/08/23 05:50:20;;;;;;;8.83;8.03;;;;;;;;;;4972515;28;21021;-91
2023/08/23 05:52:46;;;;;;;9.80;8.80;;;;;;;;;;4962624;28;20454;-92
2023/08/23 05:55:13;;;;;;;8.70;7.80;;;;;;;;;;4955699;28;21003;-91
2023/08/23 06:15:55;;;;;;;8.40;7.63;;;;;;;;;;4982230;28;20470;-90
2023/08/23 06:18:21;;;;;;;9.67;8.60;;;;;;;;;;4968876;28;20469;-91
2023/08/23 06:20:49;;;;;;;10.03;8.57;;;;;;;;;;4942939;28;21007;-90
2023/08/23 06:23:15;;;;;;;10.70;8.20;;;;;;;;;;4954004;28;20429;-91
2023/08/23 06:25:42;;;;;;;11.40;8.63;;;;;;;;;;4985850;28;20445;-90
2023/08/23 06:28:09;;;;;;;8.13;7.40;;;;;;;;;;4985326;28;20429;-90
2023/08/23 06:30:36;;;;;;;9.37;8.43;;;;;;;;;;4984274;28;20458;-90
2023/08/23 06:33:04;;;;;;;8.97;8.07;;;;;;;;;;4971369;28;20434;-90
2023/08/23 06:35:30;;;;;;;10.27;8.73;;;;;;;;;;4980165;28;20979;-90
2023/08/23 06:37:55;;;;;;;11.33;8.67;;;;;;;;;;4951620;28;20478;-91
2023/08/23 06:40:21;;;;;;;9.37;8.40;;;;;;;;;;4951590;28;20853;-90
2023/08/23 06:42:48;;;;;;;9.87;8.73;;;;;;;;;;4956479;28;20436;-91
2023/08/23 06:45:14;;;;;;;10.20;9.20;;;;;;;;;;4949104;28;20425;-90
2023/08/23 06:47:40;;;;;;;9.03;8.13;;;;;;;;;;4981824;28;20417;-89
2023/08/23 06:50:07;;;;;;;10.10;9.10;;;;;;;;;;4988943;28;20493;-89
2023/08/23 06:52:33;;;;;;;9.03;8.13;;;;;;;;;;4951773;28;20430;-90
2023/08/23 06:54:59;;;;;;;8.70;8.00;;;;;;;;;;4946042;28;20422;-90
2023/08/23 06:57:28;;;;;;;8.20;7.40;;;;;;;;;;4957781;28;20582;-90
2023/08/23 06:59:56;;;;;;;8.83;7.70;;;;;;;;;;4951703;28;20937;-90
2023/08/23 07:02:22;;;;;;;8.73;7.37;;;;;;;;;;4972561;28;20433;-89
2023/08/23 07:04:48;;;;;;;8.70;7.90;;;;;;;;;;4951218;28;20461;-90
2023/08/23 07:07:14;;;;;;;9.97;7.77;;;;;;;;;;4985517;28;20449;-89
2023/08/23 07:09:40;;;;;;;8.90;7.60;;;;;;;;;;4946348;28;20957;-90
2023/08/23 07:12:06;;;;;;;8.47;7.60;;;;;;;;;;4979001;28;20430;-89
2023/08/23 07:14:32;;;;;;;9.03;7.67;;;;;;;;;;4944506;28;1097651;-89
2023/08/23 07:16:58;;;;;;;12.20;8.40;;;;;;;;;;4956137;28;20606;-90
2023/08/23 07:19:25;;;;;;;8.67;7.87;;;;;;;;;;4982226;28;20809;-89
2023/08/23 07:21:51;;;;;;;8.90;8.00;;;;;;;;;;4961249;28;20460;-91
2023/08/23 07:24:17;;;;;;;9.17;8.17;;;;;;;;;;4953560;28;20456;-89
2023/08/23 07:26:42;;;;;;;7.97;7.27;;;;;;;;;;4952399;28;20410;-90
2023/08/23 07:29:11;;;;;;;9.67;8.23;;;;;;;;;;4950622;28;20564;-89
2023/08/23 07:31:43;;;;;;;8.13;7.40;;;;;;;;;;4988397;28;20422;-90
2023/08/23 07:34:10;;;;;;;12.10;8.87;;;;;;;;;;4986424;28;20433;-90
2023/08/23 07:36:36;;;;;;;8.90;8.00;;;;;;;;;;4968735;28;20798;-90
2023/08/23 07:39:03;;;;;;;8.20;7.40;;;;;;;;;;4950852;28;20426;-91
2023/08/23 07:41:29;;;;;;;10.13;7.70;;;;;;;;;;4981050;28;20497;-90
2023/08/23 07:43:55;;;;;;;8.13;7.33;;;;;;;;;;4982561;28;20417;-90
2023/08/23 07:46:21;;;;;;;10.87;8.17;;;;;;;;;;4972996;28;20466;-90
2023/08/23 07:48:47;;;;;;;8.13;7.33;;;;;;;;;;4980517;28;20418;-90
2023/08/23 07:51:13;;;;;;;9.17;7.10;;;;;;;;;;4963047;28;20442;-91
2023/08/23 07:53:41;;;;;;;8.73;7.87;;;;;;;;;;4986997;28;20422;-90
2023/08/23 07:56:07;;;;;;;13.13;8.30;;;;;;;;;;4952385;28;20437;-91
2023/08/23 07:58:33;;;;;;;9.00;8.10;;;;;;;;;;4968843;28;20496;-90
2023/08/23 08:00:59;;;;;;;8.63;7.73;;;;;;;;;;4951788;28;20446;-90
2023/08/23 08:03:28;;;;;;;8.87;7.97;;;;;;;;;;4978656;28;20440;-91
2023/08/23 08:05:54;;;;;;;11.33;7.53;;;;;;;;;;4950469;28;20410;-90
2023/08/23 08:08:20;;;;;;;8.97;7.57;;;;;;;;;;4968835;28;20446;-90
2023/08/23 08:10:46;;;;;;;8.20;7.20;;;;;;;;;;4952176;28;20445;-90
2023/08/23 08:13:12;;;;;;;9.17;7.33;;;;;;;;;;4951383;28;20418;-90
2023/08/23 08:15:38;;;;;;;9.23;7.60;;;;;;;;;;4959237;28;20451;-90
2023/08/23 08:18:04;;;;;;;10.67;6.67;;;;;;;;;;4949446;28;20479;-90
2023/08/23 08:20:30;;;;;;;9.23;8.27;;;;;;;;;;4966975;28;20453;-90
2023/08/23 08:22:56;;;;;;;8.63;7.83;;;;;;;;;;4973930;28;20498;-88
2023/08/23 08:25:23;;;;;;;8.30;7.60;;;;;;;;;;4941609;29;20468;-89
2023/08/23 08:27:50;;;;;;;9.43;8.10;;;;;;;;;;4965720;28;20975;-89
2023/08/23 08:30:16;;;;;;;8.83;8.03;;;;;;;;;;4982978;28;20435;-90
2023/08/23 08:32:42;;;;;;;9.93;7.80;;;;;;;;;;4970948;28;20524;-89
2023/08/23 08:35:09;;;;;;;9.60;8.27;;;;;;;;;;4950012;28;20418;-90
2023/08/23 08:37:35;;;;;;;9.47;8.57;;;;;;;;;;4950048;28;20521;-89
2023/08/23 08:40:01;;;;;;;8.77;7.87;;;;;;;;;;4983065;28;20403;-90
2023/08/23 08:42:28;;;;;;;11.17;8.90;;;;;;;;;;4962153;28;20591;-90
2023/08/23 08:44:54;;;;;;;8.97;8.13;;;;;;;;;;4962343;28;20431;-89
2023/08/23 08:47:21;;;;;;;9.57;8.73;;;;;;;;;;4964096;28;20491;-91
2023/08/23 08:49:47;;;;;;;12.00;8.50;;;;;;;;;;4962857;28;20419;-93
2023/08/23 08:52:13;;;;;;;8.17;6.70;;;;;;;;;;4975843;28;20415;-91
2023/08/23 08:54:39;;;;;;;10.80;8.13;;;;;;;;;;4967544;28;20426;-91
2023/08/23 08:57:05;;;;;;;7.77;7.07;;;;;;;;;;4949651;28;20457;-91
2023/08/23 08:59:31;;;;;;;9.63;8.63;;;;;;;;;;4945120;29;20429;-90
2023/08/23 09:02:00;;;;;;;9.73;8.00;;;;;;;;;;4946500;29;20431;-90
2023/08/23 09:04:26;;;;;;;7.83;6.97;;;;;;;;;;4951065;29;20438;-91
2023/08/23 09:06:52;;;;;;;12.83;6.73;;;;;;;;;;4949922;28;20450;-90
2023/08/23 09:09:19;;;;;;;9.50;7.87;;;;;;;;;;4947072;28;20442;-89
2023/08/23 09:11:45;;;;;;;8.60;7.80;;;;;;;;;;4950153;28;20426;-90
2023/08/23 09:14:14;;;;;;;9.20;8.00;;;;;;;;;;4951421;28;20445;-91
2023/08/23 09:16:40;;;;;;;8.50;7.70;;;;;;;;;;4947171;28;20943;-91
2023/08/23 09:19:09;;;;;;;7.13;6.53;;;;;;;;;;4949459;28;20438;-91
2023/08/23 09:21:35;;;;;;;7.00;6.40;;;;;;;;;;4952103;28;20434;-91
2023/08/23 09:24:01;;;;;;;7.47;6.87;;;;;;;;;;4949048;28;20482;-92
2023/08/23 09:26:27;;;;;;;9.70;6.73;;;;;;;;;;4948694;28;20439;-90
2023/08/23 09:28:53;;;;;;;26.17;9.00;;;;;;;;;;4971623;28;20509;-91
2023/08/23 09:31:19;;;;;;;8.47;7.37;;;;;;;;;;4947462;28;20425;-90
2023/08/23 09:33:46;;;;;;;11.30;7.50;;;;;;;;;;4966849;28;20422;-89
2023/08/23 09:36:12;;;;;;;8.50;7.00;;;;;;;;;;4953018;28;20445;-91
2023/08/23 09:38:39;;;;;;;9.30;7.73;;;;;;;;;;4948972;28;20465;-92
2023/08/23 09:41:05;;;;;;;11.30;8.07;;;;;;;;;;4951044;28;20456;-91
2023/08/23 09:43:31;;;;;;;11.07;8.63;;;;;;;;;;4946647;28;20501;-89
2023/08/23 09:45:57;;;;;;;8.33;6.90;;;;;;;;;;4948314;28;20465;-92
2023/08/23 09:48:23;;;;;;;6.97;6.37;;;;;;;;;;4933909;28;20425;-92
2023/08/23 09:50:49;;;;;;;7.07;6.40;;;;;;;;;;4952225;28;20593;-91
2023/08/23 09:53:34;;;;;;;8.90;6.90;;;;;;;;;;4946182;28;20461;-91
2023/08/23 09:56:02;;;;;;;8.13;7.43;;;;;;;;;;4940025;28;20469;-91
2023/08/23 09:58:28;;;;;;;9.10;6.77;;;;;;;;;;4948482;28;20532;-92
2023/08/23 10:00:54;;;;;;;8.23;6.63;;;;;;;;;;4972783;28;20429;-91
2023/08/23 10:03:21;;;;;;;7.73;6.93;;;;;;;;;;4950154;28;20446;-91
2023/08/23 10:05:47;;;;;;;8.87;7.47;;;;;;;;;;4958207;28;20418;-91
2023/08/23 10:08:13;;;;;;;9.90;6.20;;;;;;;;;;4948891;29;21147;-90
2023/08/23 10:10:41;;;;;;;6.90;6.20;;;;;;;;;;4963109;28;20466;-89
2023/08/23 10:13:07;;;;;;;8.00;7.13;;;;;;;;;;4983399;28;20480;-91
2023/08/23 10:15:33;;;;;;;6.80;6.13;;;;;;;;;;4961367;28;20923;-90
2023/08/23 10:18:00;;;;;;;6.73;6.03;;;;;;;;;;4948063;28;20836;-90
2023/08/23 10:20:26;;;;;;;7.20;6.50;;;;;;;;;;4936088;29;20558;-91
2023/08/23 10:22:58;;;;;;;6.23;5.73;;;;;;;;;;4925520;29;20447;-91
2023/08/23 10:25:24;;;;;;;7.00;6.33;;;;;;;;;;4925172;29;20428;-91
2023/08/23 10:27:54;;;;;;;7.13;6.50;;;;;;;;;;4925911;29;20523;-90
2023/08/23 10:30:24;;;;;;;7.87;6.30;;;;;;;;;;4916389;29;20734;-91
2023/08/23 10:32:51;;;;;;;7.53;6.13;;;;;;;;;;4938265;29;20424;-90
2023/08/23 10:35:40;;;;;;;7.73;5.80;;;;;;;;;;4925931;29;20467;-91
2023/08/23 10:38:07;;;;;;;6.53;5.93;;;;;;;;;;4924520;29;20912;-91
2023/08/23 10:40:42;;;;;;;6.90;6.20;;;;;;;;;;4928869;28;20400;-91
2023/08/23 10:43:12;;;;;;;7.50;6.60;;;;;;;;;;4942610;29;21148;-91
2023/08/23 10:45:52;;;;;;;6.90;6.20;;;;;;;;;;4926038;29;20428;-91
2023/08/23 10:48:20;;;;;;;6.57;5.97;;;;;;;;;;4940474;29;20444;-91
2023/08/23 10:50:47;;;;;;;7.13;5.97;;;;;;;;;;4935796;28;20422;-91
2023/08/23 10:53:13;;;;;;;7.33;6.73;;;;;;;;;;4964273;28;20516;-91
2023/08/23 10:55:39;;;;;;;7.73;6.90;;;;;;;;;;4947827;28;20438;-91
2023/08/23 10:58:05;;;;;;;6.53;5.90;;;;;;;;;;4976715;28;20458;-90
2023/08/23 11:00:32;;;;;;;6.83;6.23;;;;;;;;;;4956810;28;20420;-92
2023/08/23 11:02:58;;;;;;;7.93;6.37;;;;;;;;;;4927873;29;20810;-92
2023/08/23 11:05:24;;;;;;;7.20;6.53;;;;;;;;;;4912152;29;20507;-90
2023/08/23 11:07:51;;;;;;;7.37;6.30;;;;;;;;;;4913052;29;20536;-91
2023/08/23 11:10:22;;;;;;;7.00;6.30;;;;;;;;;;4915232;29;20467;-91
2023/08/23 11:13:05;;;;;;;8.63;7.13;;;;;;;;;;4944947;29;20430;-91
2023/08/23 11:15:31;;;;;;;7.47;6.70;;;;;;;;;;4927777;28;20490;-91
2023/08/23 11:17:57;;;;;;;8.60;6.40;;;;;;;;;;4930612;29;20489;-91
2023/08/23 11:20:26;;;;;;;6.87;6.27;;;;;;;;;;4928086;29;20876;-89
2023/08/23 11:22:52;;;;;;;7.07;6.43;;;;;;;;;;4929695;29;20474;-88
2023/08/23 11:25:18;;;;;;;6.50;5.90;;;;;;;;;;4931975;29;20426;-90
2023/08/23 11:27:44;;;;;;;6.43;5.83;;;;;;;;;;4932854;29;20446;-89
2023/08/23 11:30:10;;;;;;;6.70;6.20;;;;;;;;;;4930210;29;20564;-89
2023/08/23 11:32:37;;;;;;;7.10;5.63;;;;;;;;;;4945860;29;20587;-91
2023/08/23 11:35:05;;;;;;;7.20;6.00;;;;;;;;;;4931319;29;20426;-91
2023/08/23 11:37:31;;;;;;;7.73;5.83;;;;;;;;;;4924827;29;20459;-91
2023/08/23 11:40:00;;;;;;;8.40;6.17;;;;;;;;;;4930585;29;20458;-91
2023/08/23 11:42:26;;;;;;;6.20;5.60;;;;;;;;;;4946749;29;20418;-89
2023/08/23 11:45:02;;;;;;;6.33;5.80;;;;;;;;;;4931260;28;20415;-89
2023/08/23 11:47:29;;;;;;;6.63;6.00;;;;;;;;;;4916084;29;20530;-89
2023/08/23 11:49:56;;;;;;;8.93;5.50;;;;;;;;;;4987456;28;20458;-91
2023/08/23 11:52:22;;;;;;;7.47;5.27;;;;;;;;;;4957168;28;20245;-92
2023/08/23 11:54:52;;;;;;;6.77;6.00;;;;;;;;;;4950795;28;20848;-90
2023/08/23 11:57:18;;;;;;;6.83;4.97;;;;;;;;;;4936172;29;20451;-88
2023/08/23 11:59:44;;;;;;;9.40;6.17;;;;;;;;;;4940140;28;20430;-90
2023/08/23 12:02:10;;;;;;;6.63;6.03;;;;;;;;;;4952182;28;20490;-92
2023/08/23 12:04:41;;;;;;;7.00;6.30;;;;;;;;;;4939305;29;20439;-91
2023/08/23 12:07:07;;;;;;;6.50;5.77;;;;;;;;;;4938554;29;20430;-91
2023/08/23 12:09:33;;;;;;;6.80;5.70;;;;;;;;;;4929706;29;20430;-91
2023/08/23 12:11:59;;;;;;;5.93;5.43;;;;;;;;;;4933355;29;20419;-91
2023/08/23 12:14:28;;;;;;;6.20;5.70;;;;;;;;;;4920619;29;20459;-92
2023/08/23 12:16:54;;;;;;;5.80;5.30;;;;;;;;;;4946573;29;20916;-92
2023/08/23 12:19:20;;;;;;;7.10;5.27;;;;;;;;;;4930091;29;20415;-92
2023/08/23 12:21:46;;;;;;;7.23;5.83;;;;;;;;;;4936490;28;20500;-92
2023/08/23 12:24:12;;;;;;;8.07;5.23;;;;;;;;;;4930768;29;20798;-91
2023/08/23 12:26:38;;;;;;;6.80;6.20;;;;;;;;;;4931566;29;20419;-91
2023/08/23 12:29:04;;;;;;;5.90;5.30;;;;;;;;;;4931221;29;20462;-92
2023/08/23 12:31:30;;;;;;;5.90;5.30;;;;;;;;;;4948697;29;20411;-91
2023/08/23 12:33:56;;;;;;;6.03;5.50;;;;;;;;;;4930495;29;20446;-91
2023/08/23 12:36:24;;;;;;;5.50;5.00;;;;;;;;;;4929715;29;20523;-92
2023/08/23 12:38:50;;;;;;;5.83;5.33;;;;;;;;;;4974845;28;20481;-90
2023/08/23 12:41:16;;;;;;;6.07;5.43;;;;;;;;;;4968359;28;20438;-90
2023/08/23 12:43:42;;;;;;;5.20;4.70;;;;;;;;;;4951611;28;20466;-90
2023/08/23 12:46:08;;;;;;;8.97;5.50;;;;;;;;;;4965964;28;20464;-91
2023/08/23 12:48:34;;;;;;;7.10;6.00;;;;;;;;;;4949040;28;20489;-90
2023/08/23 12:51:02;;;;;;;8.93;5.77;;;;;;;;;;4969664;28;20712;-91
2023/08/23 12:53:28;;;;;;;7.03;5.10;;;;;;;;;;4997000;28;20454;-91
2023/08/23 12:55:54;;;;;;;6.40;5.63;;;;;;;;;;4955557;28;20449;-90
2023/08/23 12:58:21;;;;;;;5.47;4.97;;;;;;;;;;4947274;28;20443;-90
2023/08/23 13:00:47;;;;;;;5.60;5.10;;;;;;;;;;4951208;29;20468;-89
2023/08/23 13:03:13;;;;;;;5.83;5.03;;;;;;;;;;4955067;28;20526;-90
2023/08/23 13:05:39;;;;;;;7.47;5.57;;;;;;;;;;4961670;28;20455;-91
2023/08/23 13:08:05;;;;;;;7.13;5.30;;;;;;;;;;4970381;28;20441;-90
2023/08/23 13:10:32;;;;;;;6.93;5.37;;;;;;;;;;4943084;29;20442;-89
2023/08/23 13:12:58;;;;;;;7.70;5.23;;;;;;;;;;4965919;28;20435;-91
2023/08/23 13:15:24;;;;;;;5.97;5.47;;;;;;;;;;4976881;28;20458;-92
2023/08/23 13:17:53;;;;;;;6.20;5.70;;;;;;;;;;4950059;28;20489;-92
2023/08/23 13:20:29;;;;;;;8.07;5.73;;;;;;;;;;4961841;28;20438;-90
2023/08/23 13:22:57;;;;;;;6.40;5.63;;;;;;;;;;4946912;28;20453;-92
2023/08/23 13:25:22;;;;;;;6.30;5.67;;;;;;;;;;4975262;28;20437;-90
2023/08/23 13:27:48;;;;;;;6.47;5.70;;;;;;;;;;4941630;28;20435;-89
2023/08/23 13:30:15;;;;;;;6.27;5.67;;;;;;;;;;4964822;28;21016;-92
2023/08/23 13:32:41;;;;;;;6.20;5.60;;;;;;;;;;4967579;28;20445;-91
2023/08/23 13:35:07;;;;;;;6.10;5.30;;;;;;;;;;4960931;28;20451;-91
2023/08/23 13:37:34;;;;;;;6.70;6.00;;;;;;;;;;4950044;29;21048;-92
2023/08/23 13:40:00;;;;;;;5.73;5.10;;;;;;;;;;4971957;28;20433;-89
2023/08/23 13:42:26;;;;;;;10.13;5.70;;;;;;;;;;4969310;28;20476;-89
2023/08/23 13:44:52;;;;;;;5.73;5.23;;;;;;;;;;4948693;28;20434;-92
2023/08/23 13:47:18;;;;;;;6.27;5.03;;;;;;;;;;4943538;28;20530;-91
2023/08/23 13:49:44;;;;;;;5.73;5.13;;;;;;;;;;4972211;28;20437;-91
2023/08/23 13:52:10;;;;;;;7.90;4.80;;;;;;;;;;4943432;29;20434;-91
2023/08/23 13:54:36;;;;;;;5.33;4.83;;;;;;;;;;4936549;28;20443;-90
2023/08/23 13:57:02;;;;;;;6.17;5.40;;;;;;;;;;4939323;28;20430;-91
2023/08/23 13:59:28;;;;;;;5.37;4.90;;;;;;;;;;4956052;28;20443;-90
2023/08/23 14:01:54;;;;;;;8.10;5.00;;;;;;;;;;4958618;29;20450;-91
2023/08/23 14:04:21;;;;;;;6.17;5.57;;;;;;;;;;4979039;28;20501;-92
2023/08/23 14:06:47;;;;;;;6.07;4.87;;;;;;;;;;4981508;28;20792;-90
2023/08/23 14:09:13;;;;;;;6.80;5.20;;;;;;;;;;4965090;28;20442;-93
2023/08/23 14:11:39;;;;;;;6.57;5.80;;;;;;;;;;4952880;28;20470;-91
2023/08/23 14:14:05;;;;;;;7.13;5.37;;;;;;;;;;4948802;28;20504;-92
2023/08/23 14:16:31;;;;;;;6.20;5.20;;;;;;;;;;4950603;28;20425;-91
2023/08/23 14:18:57;;;;;;;5.20;4.70;;;;;;;;;;4967553;28;20516;-92
2023/08/23 14:26:35;;;;;;;6.20;4.90;;;;;;;;;;760656;23;20752;-90
2023/08/23 14:29:00;;;;;;;5.20;4.70;;;;;;;;;;4987807;28;21143;-93
2023/08/23 14:31:26;;;;;;;5.27;4.77;;;;;;;;;;4970905;28;20170;-92
2023/08/23 14:33:52;;;;;;;7.67;6.10;;;;;;;;;;4970961;28;20449;-93
2023/08/23 14:36:19;;;;;;;5.80;4.77;;;;;;;;;;4971845;28;20516;-93
2023/08/23 14:38:45;;;;;;;4.87;4.33;;;;;;;;;;4972375;28;20515;-93
2023/08/23 14:41:12;;;;;;;5.40;4.70;;;;;;;;;;4979391;28;20463;-90
2023/08/23 14:43:38;;;;;;;4.90;4.50;;;;;;;;;;4997383;28;20422;-92
2023/08/23 14:46:04;;;;;;;5.53;5.03;;;;;;;;;;4979413;28;20432;-93
2023/08/23 14:48:30;;;;;;;6.27;5.67;;;;;;;;;;4966969;28;20464;-92
2023/08/23 14:50:56;;;;;;;6.47;5.40;;;;;;;;;;4987694;28;20433;-93
2023/08/23 14:53:22;;;;;;;6.90;5.00;;;;;;;;;;4965624;28;20441;-92
2023/08/23 14:55:48;;;;;;;6.50;4.97;;;;;;;;;;4969342;28;20441;-93
2023/08/23 14:58:15;;;;;;;9.93;4.73;;;;;;;;;;4981923;28;20464;-92
2023/08/23 15:00:41;;;;;;;6.60;5.50;;;;;;;;;;4984161;28;20429;-93